Upstream stations:
Downstream station:
SHEF ID: OEMO2 Okemah Hwy 56
STATION TYPE:
PRECIP STAGE RIV-FLOW VOLTAGE BAT-LOAD
in ft cfs volt volt
Ccp-Rev Ccp-Rev Ccp-Rev Ccp-Rev Ccp-Rev
(US/Central)
03/24 00:00 0.00 11.67 1237 12.81 12.73
03/24 01:00 0.00 11.66 1232 12.81 12.73
03/24 02:00 0.00 11.65 1228 12.81 12.73
03/24 03:00 0.00 11.59 1205 12.81 12.65
03/24 04:00 0.00 11.60 1208 12.81 12.65
03/24 05:00 0.00 11.58 1201 12.73 12.65
03/24 06:00 0.00 11.54 1185 12.73 12.65
03/24 07:00 0.00 11.55 1189 12.73 12.65
03/24 08:00 0.00 11.51 1174 12.73 12.65
03/24 09:00 0.00 11.44 1147 12.97 12.81
03/24 10:00 0.00 11.39 1129 13.29 13.05
03/24 11:00 0.00 11.34 1110 13.84 13.21
03/24 12:00 0.00 11.27 1084 14.08 13.13
03/24 13:00 0.00 11.25 1076 13.68 13.13
03/24 14:00 0.00 11.19 1054 13.53 13.13
03/24 15:00 0.00 11.13 1032 13.44 13.05
03/24 16:00 0.00 11.10 1021 13.44 13.05
03/24 17:00 0.00 11.09 1018 13.60 12.97
03/24 18:00 0.00 11.06 1007 13.68 12.97
03/24 19:00 0.00 11.03 996 13.53 12.97
03/24 20:00 0.00 11.03 996 12.89 12.81
03/24 21:00 0.00 11.04 999 12.89 12.81
03/24 22:00 0.00 11.01 989 12.81 12.73
03/24 23:00 ---- ---- ---- ---- ----